Time;durP1;ratioP1;P1;durP2;ratioP2;P2;SDS_P1;SDS_P2;PMS_P1;PMS_P2;Temp;Humidity;BMP_temperature;BMP_pressure;BME280_temperature;BME280_humidity;BME280_pressure;Samples;Min_cycle;Max_cycle;Signal;HPM_P1;HPM_P2
2021/12/02 00:00:47;;;;;;;9.15;1.13;;;;;;;7.33;69.82;100021.06;5055620;28;20330;-77
2021/12/02 00:03:12;;;;;;;6.43;1.27;;;;;;;7.28;70.07;100023.63;5048225;28;20052;-78
2021/12/02 00:05:38;;;;;;;10.40;1.10;;;;;;;7.49;69.05;100017.84;5043160;28;20477;-80
2021/12/02 00:08:03;;;;;;;8.98;0.95;;;;;;;7.56;69.12;100024.81;5034898;28;20136;-79
2021/12/02 00:10:31;;;;;;;5.45;1.02;;;;;;;7.64;67.91;100030.97;5050757;28;20043;-78
2021/12/02 00:12:58;;;;;;;6.97;0.90;;;;;;;7.65;68.19;100032.72;5032146;28;20741;-78
2021/12/02 00:15:28;;;;;;;5.05;0.80;;;;;;;7.58;67.45;100033.50;5047886;28;20114;-76
2021/12/02 00:18:28;;;;;;;7.85;0.90;;;;;;;7.49;66.85;100035.13;5054451;28;20396;-76
2021/12/02 00:21:04;;;;;;;3.72;1.10;;;;;;;7.37;66.14;100032.38;5051589;28;20032;-78
2021/12/02 00:23:36;;;;;;;7.05;0.80;;;;;;;7.31;66.22;100034.03;5037591;28;20127;-77
2021/12/02 00:26:07;;;;;;;7.90;0.80;;;;;;;7.22;66.68;100020.06;5056732;28;20607;-76
2021/12/02 00:28:34;;;;;;;7.03;0.82;;;;;;;7.08;67.02;100029.38;5046532;28;20118;-77
2021/12/02 00:31:01;;;;;;;7.68;0.85;;;;;;;7.02;67.61;100030.16;5042101;28;20324;-78
2021/12/02 00:33:29;;;;;;;7.30;0.98;;;;;;;7.06;67.63;100031.97;5026419;28;20507;-78
2021/12/02 00:35:55;;;;;;;5.95;0.73;;;;;;;7.03;68.53;100031.03;5048359;28;20032;-76
2021/12/02 00:38:22;;;;;;;7.53;1.05;;;;;;;7.12;68.91;100031.19;5041618;28;20034;-77
2021/12/02 00:40:48;;;;;;;10.93;1.20;;;;;;;7.16;68.57;100032.94;5043705;28;20443;-77
2021/12/02 00:43:14;;;;;;;7.88;0.90;;;;;;;7.22;68.43;100026.13;5047905;28;20043;-77
2021/12/02 00:45:40;;;;;;;6.60;0.80;;;;;;;7.31;67.68;100022.78;5047800;28;20035;-78
2021/12/02 00:48:10;;;;;;;4.55;1.00;;;;;;;7.21;67.43;100018.31;5041287;28;20039;-78
2021/12/02 00:50:37;;;;;;;11.25;1.20;;;;;;;7.16;67.98;100019.97;5032754;28;20859;-78
2021/12/02 00:53:04;;;;;;;5.30;1.00;;;;;;;7.17;68.39;100022.59;5050857;28;20087;-77
2021/12/02 00:55:29;;;;;;;8.30;1.65;;;;;;;7.11;68.77;100039.78;5028638;28;20043;-77
2021/12/02 00:57:55;;;;;;;17.10;1.42;;;;;;;7.07;68.03;100041.47;5055130;28;20079;-78
2021/12/02 01:00:21;;;;;;;9.38;0.98;;;;;;;7.15;67.63;100058.00;5046810;28;20036;-78
2021/12/02 01:02:48;;;;;;;5.85;1.25;;;;;;;7.31;67.02;100067.75;5054858;28;20043;-76
2021/12/02 01:05:14;;;;;;;6.30;0.70;;;;;;;7.30;66.72;100055.63;5025973;28;20122;-77
2021/12/02 01:07:40;;;;;;;6.55;1.10;;;;;;;7.31;66.92;100046.13;5051566;28;20059;-77
2021/12/02 01:10:06;;;;;;;5.47;0.73;;;;;;;7.10;66.33;100038.91;5046499;28;20076;-79
2021/12/02 01:12:31;;;;;;;4.07;0.65;;;;;;;7.05;67.05;100043.16;5037737;28;20031;-78
2021/12/02 01:14:56;;;;;;;4.18;0.77;;;;;;;6.95;67.28;100037.84;5047017;28;20070;-77
2021/12/02 01:17:22;;;;;;;6.38;0.90;;;;;;;6.79;67.63;100041.91;5050693;28;20047;-78
2021/12/02 01:19:47;;;;;;;7.30;0.98;;;;;;;6.72;68.17;100040.06;5055489;28;20523;-78
2021/12/02 01:22:13;;;;;;;6.63;0.98;;;;;;;6.51;68.91;100045.78;5038772;28;20028;-78
2021/12/02 01:24:39;;;;;;;8.02;1.15;;;;;;;6.33;70.16;100042.91;5039104;28;20058;-78
2021/12/02 01:27:07;;;;;;;6.90;1.10;;;;;;;6.28;70.52;100044.53;5028422;28;20440;-77
2021/12/02 01:29:34;;;;;;;6.32;0.80;;;;;;;6.20;70.47;100038.34;5050013;28;20474;-77
2021/12/02 01:32:05;;;;;;;6.70;0.82;;;;;;;6.21;70.85;100040.09;5037058;28;20036;-78
2021/12/02 01:34:31;;;;;;;5.97;1.08;;;;;;;6.23;70.94;100036.69;5057670;28;20035;-78
2021/12/02 01:36:57;;;;;;;4.75;1.00;;;;;;;6.30;70.69;100048.00;5059436;28;20039;-77
2021/12/02 01:39:23;;;;;;;8.85;0.95;;;;;;;6.40;70.16;100044.75;5044671;28;20557;-77
2021/12/02 01:41:54;;;;;;;6.32;0.85;;;;;;;6.51;69.28;100044.09;5051002;28;20376;-79
2021/12/02 01:44:21;;;;;;;6.80;1.08;;;;;;;6.69;68.96;100048.69;5050989;28;20328;-77
2021/12/02 01:46:49;;;;;;;8.70;0.90;;;;;;;6.78;68.38;100053.13;5044006;28;20074;-77
2021/12/02 01:49:15;;;;;;;5.03;0.90;;;;;;;6.88;67.91;100042.94;5041087;28;20032;-79
2021/12/02 01:51:46;;;;;;;7.60;0.90;;;;;;;6.87;67.54;100035.13;5047501;28;20235;-79
2021/12/02 01:54:20;;;;;;;6.28;1.00;;;;;;;6.83;67.79;100048.91;5052160;28;20036;-77
2021/12/02 01:56:51;;;;;;;8.70;0.93;;;;;;;6.79;68.32;100045.38;5047381;28;20125;-79
2021/12/02 01:59:21;;;;;;;9.65;0.90;;;;;;;6.84;67.30;100058.38;5039393;28;20697;-70
2021/12/02 02:01:51;;;;;;;12.35;1.40;;;;;;;6.89;65.94;100062.78;5044033;28;20050;-77
2021/12/02 02:04:17;;;;;;;8.15;1.23;;;;;;;6.99;65.97;100061.22;5059566;28;20051;-78
2021/12/02 02:07:02;;;;;;;12.05;1.10;;;;;;;6.93;65.73;100062.00;5053775;28;20465;-76
2021/12/02 02:09:31;;;;;;;5.15;0.60;;;;;;;6.99;64.44;100056.03;5026200;28;20602;-77
2021/12/02 02:11:57;;;;;;;6.90;1.15;;;;;;;7.07;65.36;100082.06;5043795;28;20063;-75
2021/12/02 02:14:27;;;;;;;3.50;0.73;;;;;;;7.13;66.47;100071.81;5033324;28;20670;-77
2021/12/02 02:16:53;;;;;;;5.40;0.98;;;;;;;7.04;66.77;100066.47;5059051;28;20902;-76
2021/12/02 02:19:19;;;;;;;4.40;0.63;;;;;;;6.97;66.28;100067.22;5045228;28;20281;-75
2021/12/02 02:21:44;;;;;;;5.95;0.77;;;;;;;7.12;65.82;100068.34;5055354;28;20028;-76
2021/12/02 02:24:14;;;;;;;3.30;0.50;;;;;;;7.06;64.92;100062.19;5052655;28;20662;-77
2021/12/02 02:26:41;;;;;;;2.65;0.50;;;;;;;7.08;64.87;100061.34;5051734;28;21329;-77
2021/12/02 02:29:12;;;;;;;2.67;0.55;;;;;;;7.06;64.20;100060.47;5051672;28;20524;-76
2021/12/02 02:31:41;;;;;;;3.58;0.68;;;;;;;6.96;64.65;100055.97;5040646;28;21879;-77
2021/12/02 02:34:06;;;;;;;4.05;0.65;;;;;;;6.91;64.63;100073.19;5049783;28;20035;-76
2021/12/02 02:36:36;;;;;;;6.72;0.60;;;;;;;6.93;63.36;100061.13;5056783;28;20065;-76
2021/12/02 02:39:04;;;;;;;2.28;0.60;;;;;;;7.01;63.48;100059.53;5052973;28;20048;-76
2021/12/02 02:41:38;;;;;;;2.92;0.50;;;;;;;6.92;62.90;100060.25;5039799;28;20491;-75
2021/12/02 02:44:04;;;;;;;0.55;0.40;;;;;;;6.99;62.72;100057.75;5060060;28;20040;-75
2021/12/02 02:46:34;;;;;;;5.35;0.55;;;;;;;7.04;62.25;100056.97;5046637;28;20262;-75
2021/12/02 02:49:01;;;;;;;4.40;0.70;;;;;;;7.08;63.49;100071.72;5035294;28;20044;-76
2021/12/02 02:51:29;;;;;;;5.72;0.70;;;;;;;7.07;64.36;100074.31;5035764;28;20035;-76
2021/12/02 02:53:56;;;;;;;4.22;0.75;;;;;;;7.06;64.38;100072.56;5052471;28;20052;-76
2021/12/02 02:56:25;;;;;;;6.70;0.80;;;;;;;7.01;64.88;100089.75;5033119;28;20508;-76
2021/12/02 02:59:04;;;;;;;5.20;0.60;;;;;;;6.93;65.37;100081.88;5048487;28;20040;-75
2021/12/02 03:04:07;;;;;;;3.60;0.63;;;;;;;6.96;65.19;100079.31;5056400;28;20036;-75
2021/12/02 03:06:51;;;;;;;6.80;0.77;;;;;;;7.03;64.67;100083.72;5052225;28;20450;-76
2021/12/02 03:12:03;;;;;;;8.80;1.05;;;;;;;6.98;65.25;100095.75;5053616;28;20054;-77
2021/12/02 03:14:36;;;;;;;6.35;0.85;;;;;;;6.96;66.49;100120.75;5050252;28;20471;-76
2021/12/02 03:17:01;;;;;;;3.85;0.65;;;;;;;6.75;68.13;100104.88;5052370;28;20211;-79
2021/12/02 03:19:28;;;;;;;4.40;0.50;;;;;;;6.66;69.52;100105.59;5047090;28;20160;-78
2021/12/02 03:21:55;;;;;;;5.45;0.60;;;;;;;6.55;69.43;100098.50;5045113;28;20054;-78
2021/12/02 03:24:20;;;;;;;1.10;0.30;;;;;;;6.39;70.54;100094.78;5038421;28;20050;-78
2021/12/02 03:26:47;;;;;;;2.65;0.40;;;;;;;6.32;70.49;100083.44;5056576;28;20048;-78
2021/12/02 03:29:12;;;;;;;2.50;0.40;;;;;;;6.15;70.92;100071.06;5052722;28;20495;-77
2021/12/02 03:31:38;;;;;;;2.13;0.50;;;;;;;6.01;71.14;100068.19;5054214;28;20040;-77
2021/12/02 03:34:05;;;;;;;1.77;0.30;;;;;;;5.94;72.04;100087.03;5052868;28;20437;-77
2021/12/02 03:36:30;;;;;;;1.92;0.52;;;;;;;5.94;72.57;100099.97;5051770;28;20135;-77
2021/12/02 03:38:56;;;;;;;4.90;0.90;;;;;;;5.99;72.37;100093.16;5053767;28;20166;-79
2021/12/02 03:41:23;;;;;;;5.00;0.90;;;;;;;6.08;72.45;100070.94;5043862;28;20101;-77
2021/12/02 03:43:49;;;;;;;5.57;0.60;;;;;;;6.10;72.37;100066.63;5039443;28;20052;-77
2021/12/02 03:46:17;;;;;;;5.88;0.70;;;;;;;6.11;72.51;100063.22;5051203;28;20039;-78
2021/12/02 03:48:43;;;;;;;6.88;0.60;;;;;;;6.12;72.50;100074.44;5060703;28;20035;-77
2021/12/02 03:51:10;;;;;;;5.15;0.80;;;;;;;6.10;72.46;100078.69;5053414;28;20036;-79
2021/12/02 03:53:36;;;;;;;8.32;0.88;;;;;;;6.20;72.02;100084.94;5048112;28;20997;-80
2021/12/02 03:56:03;;;;;;;5.55;0.73;;;;;;;6.13;71.46;100083.06;5048175;28;20088;-79
2021/12/02 03:58:29;;;;;;;7.35;0.90;;;;;;;6.03;70.71;100082.94;5040877;28;20044;-78
2021/12/02 04:00:55;;;;;;;5.50;0.85;;;;;;;6.23;70.40;100087.56;5053250;28;20469;-80
2021/12/02 04:03:20;;;;;;;8.75;0.90;;;;;;;6.18;70.26;100079.72;5046153;28;20043;-77
2021/12/02 04:05:45;;;;;;;5.88;0.60;;;;;;;6.16;69.77;100085.75;5059067;28;20340;-77
2021/12/02 04:08:11;;;;;;;6.95;0.77;;;;;;;6.34;69.84;100086.06;5055614;28;20085;-78
2021/12/02 04:10:39;;;;;;;5.40;0.70;;;;;;;6.30;69.91;100089.44;5036092;28;20211;-78
2021/12/02 04:13:12;;;;;;;6.38;1.00;;;;;;;6.04;69.96;100120.88;5037032;28;20135;-76
2021/12/02 04:15:39;;;;;;;6.25;0.82;;;;;;;6.07;70.44;100100.25;5053419;28;20040;-77
2021/12/02 04:18:05;;;;;;;8.10;1.17;;;;;;;5.95;71.01;100115.53;5049544;28;20994;-76
2021/12/02 04:20:30;;;;;;;5.32;0.52;;;;;;;5.90;70.97;100124.91;5055681;28;21232;-78
2021/12/02 04:22:56;;;;;;;2.45;0.52;;;;;;;5.86;70.97;100120.47;5059997;28;20153;-77
2021/12/02 04:25:22;;;;;;;2.33;0.50;;;;;;;5.79;71.31;100115.16;5043652;28;20097;-76
2021/12/02 04:27:48;;;;;;;2.65;0.47;;;;;;;5.81;70.77;100095.34;5056075;28;20074;-76
2021/12/02 04:30:16;;;;;;;2.95;0.40;;;;;;;5.61;71.44;100092.38;5045233;28;20055;-77
2021/12/02 04:32:42;;;;;;;1.23;0.32;;;;;;;5.55;71.04;100090.53;5054978;28;20035;-78
2021/12/02 04:35:08;;;;;;;3.17;0.40;;;;;;;5.41;71.15;100089.38;5053552;28;20056;-78
2021/12/02 04:37:33;;;;;;;0.40;0.20;;;;;;;5.30;71.43;100096.91;5026087;28;20356;-78
2021/12/02 04:39:59;;;;;;;1.48;0.43;;;;;;;5.21;71.32;100083.75;5044383;28;20059;-78
2021/12/02 04:42:25;;;;;;;1.42;0.40;;;;;;;5.03;71.88;100085.06;5051450;28;20126;-77
2021/12/02 04:44:51;;;;;;;2.67;0.50;;;;;;;4.88;72.50;100086.44;5051559;28;20044;-77
2021/12/02 04:47:17;;;;;;;1.67;0.30;;;;;;;4.92;72.22;100083.94;5043420;28;20054;-70
2021/12/02 04:49:43;;;;;;;2.08;0.50;;;;;;;4.79;72.85;100094.00;5055466;28;20582;-77
2021/12/02 04:52:08;;;;;;;1.80;0.50;;;;;;;4.74;73.94;100093.00;5036803;28;20477;-77
2021/12/02 04:54:33;;;;;;;1.70;0.57;;;;;;;4.69;73.64;100102.38;5056225;28;20072;-78
2021/12/02 04:56:59;;;;;;;2.38;0.50;;;;;;;4.62;73.62;100094.41;5039137;28;20120;-77
2021/12/02 04:59:24;;;;;;;4.13;0.60;;;;;;;4.55;74.08;100087.34;5045319;28;20838;-77
2021/12/02 05:01:50;;;;;;;0.88;0.38;;;;;;;4.54;73.99;100083.91;5048249;28;20401;-78
2021/12/02 05:04:15;;;;;;;0.90;0.40;;;;;;;4.54;74.13;100081.31;5051285;28;20048;-78
2021/12/02 05:06:41;;;;;;;7.45;1.05;;;;;;;4.58;74.94;100092.56;5052417;28;20276;-78
2021/12/02 05:09:07;;;;;;;3.75;0.50;;;;;;;4.67;75.20;100091.13;5032956;28;20101;-78
2021/12/02 05:11:34;;;;;;;5.10;0.50;;;;;;;4.77;75.11;100095.66;5027063;28;20892;-77
2021/12/02 05:13:59;;;;;;;4.25;0.52;;;;;;;4.90;75.08;100094.25;5044693;28;20055;-77
2021/12/02 05:16:24;;;;;;;2.10;0.50;;;;;;;4.92;75.12;100089.13;5050097;28;20047;-79
2021/12/02 05:18:50;;;;;;;7.97;1.05;;;;;;;4.98;74.25;100087.53;5048857;28;20043;-77
2021/12/02 05:21:16;;;;;;;7.82;0.98;;;;;;;5.21;72.83;100088.94;5051992;28;20047;-77
2021/12/02 05:23:42;;;;;;;13.55;1.52;;;;;;;5.29;72.31;100095.16;5053154;28;20072;-76
2021/12/02 05:26:07;;;;;;;4.72;0.90;;;;;;;5.42;71.09;100092.84;5033477;28;20447;-77
2021/12/02 05:28:33;;;;;;;9.70;0.95;;;;;;;5.54;70.42;100103.44;5036660;28;20416;-77
2021/12/02 05:30:58;;;;;;;7.85;1.00;;;;;;;5.60;69.47;100100.97;5047626;28;20040;-77
2021/12/02 05:33:24;;;;;;;11.65;1.20;;;;;;;5.80;70.10;100101.38;5038580;28;20067;-77
2021/12/02 05:35:49;;;;;;;6.28;1.00;;;;;;;5.97;69.84;100105.22;5052263;28;20051;-77
2021/12/02 05:38:14;;;;;;;5.72;1.20;;;;;;;6.02;70.07;100111.34;5056516;28;20353;-77
2021/12/02 05:40:40;;;;;;;7.78;1.42;;;;;;;6.15;69.36;100102.97;5053361;28;20074;-76
2021/12/02 05:43:05;;;;;;;8.40;1.10;;;;;;;6.27;67.83;100102.34;5034600;28;20507;-75
2021/12/02 05:45:31;;;;;;;6.47;1.00;;;;;;;6.39;65.80;100097.38;5037848;28;20040;-77
2021/12/02 05:47:56;;;;;;;6.97;0.98;;;;;;;6.46;65.81;100102.66;5040712;28;20036;-76
2021/12/02 05:50:22;;;;;;;7.53;1.20;;;;;;;6.39;64.89;100102.56;5051868;28;20623;-77
2021/12/02 05:52:48;;;;;;;10.73;1.10;;;;;;;6.21;65.40;100120.34;5050368;28;20043;-76
2021/12/02 05:55:14;;;;;;;13.70;1.20;;;;;;;6.24;66.58;100128.13;5030597;28;20040;-75
2021/12/02 05:57:39;;;;;;;10.93;1.67;;;;;;;6.31;67.77;100128.28;5045942;28;20194;-76
2021/12/02 06:00:07;;;;;;;11.18;1.30;;;;;;;6.43;67.38;100133.69;5032564;28;20433;-78
2021/12/02 06:02:35;;;;;;;10.50;1.40;;;;;;;6.41;67.43;100144.84;5034271;28;20043;-77
2021/12/02 06:05:00;;;;;;;13.07;1.10;;;;;;;6.38;67.03;100135.34;5047425;28;20139;-77
2021/12/02 06:07:26;;;;;;;10.00;1.17;;;;;;;6.33;66.30;100141.28;5032992;28;20116;-76
2021/12/02 06:09:53;;;;;;;9.32;1.40;;;;;;;6.37;65.53;100150.81;5046415;28;20064;-76
2021/12/02 06:12:18;;;;;;;9.45;1.00;;;;;;;6.35;65.68;100155.97;5032132;28;20081;-79
2021/12/02 06:14:44;;;;;;;4.47;0.80;;;;;;;6.26;65.03;100173.06;5055233;28;20043;-77
2021/12/02 06:17:09;;;;;;;4.03;0.70;;;;;;;6.30;64.51;100183.50;5030273;28;20064;-76
2021/12/02 06:19:37;;;;;;;2.33;0.60;;;;;;;6.18;63.78;100180.66;5024584;28;21174;-77
2021/12/02 06:22:03;;;;;;;2.15;0.50;;;;;;;6.08;63.74;100161.50;5051263;28;20073;-77
2021/12/02 06:24:42;;;;;;;2.17;0.50;;;;;;;5.95;64.50;100156.03;5057399;28;20206;-76
2021/12/02 06:27:09;;;;;;;2.78;0.88;;;;;;;5.83;65.11;100153.19;5032969;28;20047;-76
2021/12/02 06:29:34;;;;;;;4.65;0.70;;;;;;;5.60;66.67;100147.53;5040245;28;20516;-78
2021/12/02 06:32:00;;;;;;;3.85;0.80;;;;;;;5.48;67.35;100148.13;5049622;28;20118;-76
2021/12/02 06:34:25;;;;;;;6.47;0.70;;;;;;;5.35;68.52;100148.69;5053291;28;20138;-76
2021/12/02 06:36:50;;;;;;;3.40;0.68;;;;;;;5.29;69.31;100145.97;5058411;28;20032;-77
